createdAt,value
2022-12-13T17:55:45.811Z,97213.72
2022-12-13T17:58:17.684Z,97215.09
2022-12-13T18:00:49.941Z,97212.28
2022-12-13T18:03:22.153Z,97218.94
2022-12-13T18:05:59.684Z,97211.69
2022-12-13T18:08:36.168Z,97204.97
2022-12-13T18:11:31.707Z,97200.75
2022-12-13T18:14:02.715Z,97196.66
2022-12-13T18:16:38.368Z,97213.03
2022-12-13T18:19:14.190Z,97207.31
2022-12-13T18:21:46.131Z,97203.66
2022-12-13T18:24:18.737Z,97201.16
2022-12-13T18:26:51.034Z,97206.09
2022-12-13T18:29:23.635Z,97197.09
2022-12-13T18:31:55.562Z,97189.59
2022-12-13T18:34:28.724Z,97185.75
2022-12-13T18:37:00.578Z,97187.81
2022-12-13T18:39:34.955Z,97177.19
2022-12-13T18:42:07.275Z,97172.28
2022-12-13T18:44:39.920Z,97172.97
2022-12-13T18:47:15.306Z,97168.34
2022-12-13T18:49:54.926Z,97180.81
2022-12-13T18:52:27.493Z,97156.72
2022-12-13T18:55:00.021Z,97154.44
2022-12-13T18:57:32.174Z,97148.16
2022-12-13T19:00:05.469Z,97135.38
2022-12-13T19:02:38.327Z,97146.88
2022-12-13T19:05:11.519Z,97145.91
2022-12-13T19:07:43.587Z,97140.47
2022-12-13T19:10:15.831Z,97136.88
2022-12-13T19:12:47.709Z,97132.81
2022-12-13T19:15:20.552Z,97126.72
2022-12-13T19:17:52.529Z,97120.25
2022-12-13T19:20:25.104Z,97118.63
2022-12-13T19:22:57.675Z,97106.94
2022-12-13T19:25:30.688Z,97104.03
2022-12-13T19:28:02.855Z,97079.31
2022-12-13T19:30:35.492Z,97091.34
2022-12-13T19:33:07.852Z,97074.13
2022-12-13T19:35:43.620Z,97074.25
2022-12-13T19:38:15.494Z,97054.31
2022-12-13T19:40:48.041Z,97054.06
2022-12-13T19:43:21.602Z,97045.13
2022-12-13T19:45:53.853Z,97038.00
2022-12-13T19:48:26.866Z,97029.72
2022-12-13T19:51:00.296Z,97054.13
2022-12-13T19:53:34.008Z,97057.66
2022-12-13T19:56:15.228Z,97061.19
2022-12-13T19:58:49.423Z,97070.34
2022-12-13T20:01:21.378Z,97063.94
2022-12-13T20:03:55.339Z,97061.34
2022-12-13T20:06:27.214Z,97062.84
2022-12-13T20:08:59.763Z,97066.81
2022-12-13T20:11:32.067Z,97080.75
2022-12-13T20:14:04.284Z,97094.81
2022-12-13T20:16:36.205Z,97092.63
2022-12-13T20:19:10.522Z,97095.25
2022-12-13T20:21:42.395Z,97092.75
2022-12-13T20:24:15.700Z,97092.91
2022-12-13T20:26:47.626Z,97096.47
2022-12-13T20:29:21.892Z,97085.47
2022-12-13T20:31:54.181Z,97079.91
2022-12-13T20:34:26.792Z,97090.38
2022-12-13T20:36:58.713Z,97074.81
2022-12-13T20:39:31.307Z,97074.09
2022-12-13T20:42:04.369Z,97078.88
2022-12-13T20:44:36.600Z,97075.56
2022-12-13T20:47:08.649Z,97076.16
2022-12-13T20:49:40.640Z,97083.25
2022-12-13T20:52:12.523Z,97089.66
2022-12-13T20:54:45.320Z,97083.69
2022-12-13T20:57:17.367Z,97087.38
2022-12-13T20:59:49.265Z,97084.81
2022-12-13T21:02:21.222Z,97088.56
2022-12-13T21:04:53.749Z,97073.66
2022-12-13T21:07:48.284Z,97088.75
2022-12-13T21:10:21.358Z,97091.69
2022-12-13T21:12:53.289Z,97097.97
2022-12-13T21:15:27.263Z,97097.31
2022-12-13T21:17:59.121Z,97092.06
2022-12-13T21:20:31.876Z,97087.50
2022-12-13T21:23:04.839Z,97083.38
2022-12-13T21:25:41.847Z,97077.75
2022-12-13T21:28:14.145Z,97070.25
2022-12-13T21:30:46.439Z,97077.19
2022-12-13T21:33:18.472Z,97064.78
2022-12-13T21:35:51.220Z,97071.72
2022-12-13T21:38:23.549Z,97058.31
2022-12-13T21:40:56.007Z,97051.41
2022-12-13T21:43:37.389Z,97038.69
2022-12-13T21:46:17.119Z,97033.69
2022-12-13T21:48:51.969Z,97029.34
2022-12-13T21:51:27.076Z,97026.63
2022-12-13T21:54:00.978Z,97021.31
2022-12-13T21:56:52.504Z,97015.53
2022-12-13T21:59:27.710Z,97000.88
2022-12-13T22:02:20.781Z,96998.13
2022-12-13T22:04:55.451Z,97004.56
2022-12-13T22:07:33.537Z,97010.84
2022-12-13T22:10:07.116Z,97000.22
2022-12-13T22:12:42.048Z,96990.88
2022-12-13T22:15:15.840Z,96999.50
2022-12-13T22:17:48.542Z,97000.94
2022-12-13T22:20:20.468Z,96991.22
2022-12-13T22:22:53.179Z,97003.00
2022-12-13T22:25:25.928Z,97006.59
2022-12-13T22:27:58.640Z,96996.66
2022-12-13T22:30:31.010Z,96995.91
2022-12-13T22:33:03.911Z,96986.84
2022-12-13T22:35:37.996Z,96994.88
2022-12-13T22:38:11.233Z,96981.94
2022-12-13T22:40:43.975Z,96985.00
2022-12-13T22:43:20.578Z,96988.22
2022-12-13T22:45:52.980Z,96987.66
2022-12-13T22:48:26.078Z,96994.16
2022-12-13T22:51:06.560Z,96987.44
2022-12-13T22:53:40.862Z,97008.31
2022-12-13T22:56:21.101Z,96990.88
2022-12-13T22:58:55.527Z,97002.53
2022-12-13T23:01:34.174Z,96999.22
2022-12-13T23:04:07.511Z,96992.91
2022-12-13T23:06:40.993Z,96990.47
2022-12-13T23:09:14.161Z,96976.34
2022-12-13T23:12:05.057Z,96966.47
2022-12-13T23:14:37.011Z,96955.69
2022-12-13T23:17:09.984Z,96953.25
2022-12-13T23:19:50.040Z,96964.56
2022-12-13T23:22:26.110Z,96966.84
2022-12-13T23:24:58.633Z,96962.03
2022-12-13T23:27:30.485Z,96959.25
2022-12-13T23:30:03.372Z,96955.84
2022-12-13T23:32:36.344Z,96950.28
2022-12-13T23:35:10.596Z,96956.03
2022-12-13T23:37:42.933Z,96959.25
2022-12-13T23:40:15.855Z,96941.81
2022-12-13T23:42:49.734Z,96939.03
2022-12-13T23:45:22.840Z,96931.66
2022-12-13T23:47:55.595Z,96930.16
2022-12-13T23:50:27.553Z,96932.16
2022-12-13T23:53:00.351Z,96928.00
2022-12-13T23:55:36.927Z,96914.09
2022-12-13T23:58:09.744Z,96923.47
